createdAt,value
2019-02-19T00:02:13.849Z,4.20
2019-02-19T00:04:42.680Z,4.10
2019-02-19T00:07:11.172Z,4.10
2019-02-19T00:09:40.081Z,4.00
2019-02-19T00:12:08.608Z,3.90
2019-02-19T00:14:37.164Z,3.90
2019-02-19T00:17:05.628Z,3.80
2019-02-19T00:19:34.192Z,3.80
2019-02-19T00:22:02.734Z,3.70
2019-02-19T00:24:31.302Z,3.70
2019-02-19T00:26:59.839Z,3.70
2019-02-19T00:29:28.405Z,3.70
2019-02-19T00:31:56.940Z,3.70
2019-02-19T00:34:25.433Z,3.70
2019-02-19T00:36:53.972Z,3.60
2019-02-19T00:39:22.612Z,3.50
2019-02-19T00:41:51.148Z,3.50
2019-02-19T00:44:19.710Z,3.50
2019-02-19T00:46:48.248Z,3.50
2019-02-19T00:49:16.808Z,3.40
2019-02-19T00:51:45.350Z,3.40
2019-02-19T00:54:13.914Z,3.40
2019-02-19T00:56:42.793Z,3.40
2019-02-19T00:59:11.293Z,3.40
2019-02-19T01:01:39.825Z,3.30
2019-02-19T01:04:08.448Z,3.30
2019-02-19T01:06:36.912Z,3.20
2019-02-19T01:09:08.012Z,3.20
2019-02-19T01:11:36.549Z,3.20
2019-02-19T01:14:05.184Z,3.20
2019-02-19T01:16:33.725Z,3.10
2019-02-19T01:19:02.286Z,3.10
2019-02-19T01:21:31.217Z,3.10
2019-02-19T01:23:59.785Z,3.10
2019-02-19T01:26:28.326Z,3.10
2019-02-19T01:28:58.304Z,3.00
2019-02-19T01:31:27.041Z,3.00
2019-02-19T01:33:55.569Z,3.00
2019-02-19T01:36:24.440Z,2.90
2019-02-19T01:38:52.977Z,2.90
2019-02-19T01:41:21.467Z,2.90
2019-02-19T01:43:50.288Z,2.90
2019-02-19T01:46:18.857Z,2.80
2019-02-19T01:48:47.392Z,2.80
2019-02-19T01:51:15.880Z,2.80
2019-02-19T01:53:44.630Z,2.80
2019-02-19T01:56:13.267Z,2.70
2019-02-19T01:58:42.108Z,2.70
2019-02-19T02:01:10.670Z,2.60
2019-02-19T02:03:39.226Z,2.50
2019-02-19T02:06:07.837Z,2.50
2019-02-19T02:08:36.380Z,2.50
2019-02-19T02:11:04.944Z,2.50
2019-02-19T02:13:33.708Z,2.50
2019-02-19T02:16:02.248Z,2.50
2019-02-19T02:18:30.812Z,2.50
2019-02-19T02:20:59.300Z,2.50
2019-02-19T02:23:27.845Z,2.50
2019-02-19T02:25:56.378Z,2.50
2019-02-19T02:28:25.017Z,2.50
2019-02-19T02:30:53.556Z,2.50
2019-02-19T02:33:22.054Z,2.50
2019-02-19T02:35:50.603Z,2.50
2019-02-19T02:38:19.439Z,2.50
2019-02-19T02:40:47.976Z,2.40
2019-02-19T02:43:16.810Z,2.40
2019-02-19T02:45:52.791Z,2.40
2019-02-19T02:48:15.497Z,2.40
2019-02-19T02:50:44.044Z,2.40
2019-02-19T02:53:12.602Z,2.40
2019-02-19T02:55:41.069Z,2.40
2019-02-19T02:58:09.980Z,2.30
2019-02-19T03:00:38.851Z,2.30
2019-02-19T03:03:07.388Z,2.30
2019-02-19T03:05:37.588Z,2.30
2019-02-19T03:08:06.854Z,2.30
2019-02-19T03:10:35.412Z,2.30
2019-02-19T03:13:03.873Z,2.30
2019-02-19T03:15:32.440Z,2.20
2019-02-19T03:18:00.994Z,2.20
2019-02-19T03:20:29.546Z,2.10
2019-02-19T03:22:58.081Z,2.10
2019-02-19T03:25:26.620Z,2.10
2019-02-19T03:27:55.185Z,2.10
2019-02-19T03:30:23.733Z,2.10
2019-02-19T03:32:52.290Z,2.00
2019-02-19T03:35:20.823Z,2.10
2019-02-19T03:37:49.385Z,2.00
2019-02-19T03:40:17.965Z,2.00
2019-02-19T03:42:46.812Z,2.00
2019-02-19T03:45:15.272Z,2.10
2019-02-19T03:47:43.767Z,2.00
2019-02-19T03:50:12.292Z,2.00
2019-02-19T03:52:40.780Z,2.00
2019-02-19T03:55:09.678Z,2.00
2019-02-19T03:57:38.624Z,2.00
2019-02-19T04:00:08.593Z,2.00
2019-02-19T04:02:37.074Z,2.00
2019-02-19T04:05:06.307Z,2.00
2019-02-19T04:07:34.835Z,2.00
2019-02-19T04:10:04.607Z,2.00
2019-02-19T04:12:33.091Z,1.90
2019-02-19T04:15:01.553Z,1.90
2019-02-19T04:17:36.683Z,1.90
2019-02-19T04:20:07.184Z,1.80
2019-02-19T04:22:35.717Z,1.90
2019-02-19T04:25:04.811Z,1.90
2019-02-19T04:27:33.278Z,1.80
2019-02-19T04:30:02.184Z,1.80
2019-02-19T04:32:30.719Z,1.80
2019-02-19T04:34:59.204Z,1.80
2019-02-19T04:37:29.775Z,1.90
2019-02-19T04:39:58.015Z,1.90
2019-02-19T04:42:26.472Z,1.90
2019-02-19T04:44:54.951Z,1.90
2019-02-19T04:47:23.712Z,1.90
2019-02-19T04:49:52.596Z,1.90
2019-02-19T04:52:21.159Z,1.90
2019-02-19T04:54:49.711Z,1.90
2019-02-19T04:57:18.168Z,1.90
2019-02-19T04:59:46.719Z,1.90
2019-02-19T05:02:15.183Z,1.90
2019-02-19T05:04:43.735Z,1.90
2019-02-19T05:07:12.199Z,1.90
2019-02-19T05:09:40.679Z,1.90
2019-02-19T05:12:09.135Z,1.90
2019-02-19T05:14:39.715Z,2.00
2019-02-19T05:17:08.188Z,2.00
2019-02-19T05:19:36.744Z,2.00
2019-02-19T05:22:05.341Z,1.90
2019-02-19T05:24:33.875Z,1.90
2019-02-19T05:27:02.359Z,1.90
2019-02-19T05:29:30.815Z,2.00
2019-02-19T05:31:59.379Z,2.00
2019-02-19T05:34:27.844Z,2.10
2019-02-19T05:36:56.401Z,2.20
2019-02-19T05:39:25.003Z,2.30
2019-02-19T05:41:53.563Z,2.30
2019-02-19T05:44:22.017Z,2.40
2019-02-19T05:46:50.507Z,2.40
2019-02-19T05:49:19.043Z,2.40
2019-02-19T05:51:47.694Z,2.40
2019-02-19T05:54:16.227Z,2.50
2019-02-19T05:56:44.716Z,2.50
2019-02-19T05:59:13.565Z,2.50
2019-02-19T06:01:42.091Z,2.60
2019-02-19T06:04:10.583Z,2.60
2019-02-19T06:06:39.114Z,2.60
2019-02-19T06:09:07.667Z,2.60
2019-02-19T06:11:36.203Z,2.60
2019-02-19T06:14:04.733Z,2.60
2019-02-19T06:16:33.291Z,2.60
2019-02-19T06:19:02.048Z,2.60
2019-02-19T06:21:30.602Z,2.70
2019-02-19T06:23:59.064Z,2.70
2019-02-19T06:26:27.615Z,2.70
2019-02-19T06:28:57.840Z,2.80
2019-02-19T06:31:26.503Z,2.90
2019-02-19T06:33:55.291Z,2.90
2019-02-19T06:36:24.156Z,3.10
2019-02-19T06:38:52.642Z,3.20
2019-02-19T06:41:21.103Z,3.30
2019-02-19T06:43:49.588Z,3.50
2019-02-19T06:46:18.053Z,3.60
2019-02-19T06:48:46.587Z,3.80
2019-02-19T06:51:15.359Z,3.90
2019-02-19T06:53:44.152Z,4.00
2019-02-19T06:56:12.707Z,4.10
2019-02-19T06:58:41.171Z,4.30
2019-02-19T07:01:09.791Z,4.40
2019-02-19T07:03:45.807Z,4.60
2019-02-19T07:06:14.288Z,4.70
2019-02-19T07:08:42.734Z,4.80
2019-02-19T07:11:11.223Z,4.90
2019-02-19T07:13:39.694Z,5.00
2019-02-19T07:16:08.316Z,5.10
2019-02-19T07:18:36.846Z,5.20
2019-02-19T07:21:05.479Z,5.20
2019-02-19T07:23:34.008Z,5.30
2019-02-19T07:26:02.567Z,5.30
2019-02-19T07:28:31.096Z,5.40
2019-02-19T07:30:59.959Z,5.50
2019-02-19T07:33:28.419Z,5.50
2019-02-19T07:35:56.870Z,5.60
2019-02-19T07:38:25.347Z,5.60
2019-02-19T07:40:53.884Z,5.70
2019-02-19T07:43:22.435Z,5.80
2019-02-19T07:45:52.308Z,5.90
2019-02-19T07:48:20.916Z,6.00
2019-02-19T07:50:49.451Z,6.00
2019-02-19T07:53:17.994Z,6.10
2019-02-19T07:55:46.456Z,6.20
2019-02-19T07:58:15.083Z,6.30
2019-02-19T08:00:43.641Z,6.30
2019-02-19T08:03:12.164Z,6.40
2019-02-19T08:05:40.647Z,6.50
2019-02-19T08:08:09.176Z,6.50
2019-02-19T08:10:37.730Z,6.60
2019-02-19T08:13:06.254Z,6.70
2019-02-19T08:15:35.084Z,6.80
2019-02-19T08:18:03.547Z,6.90
2019-02-19T08:20:32.095Z,7.00
2019-02-19T08:23:00.840Z,7.10
2019-02-19T08:25:29.725Z,7.20
2019-02-19T08:27:58.181Z,7.20
2019-02-19T08:30:26.663Z,7.30
2019-02-19T08:32:55.115Z,7.40
2019-02-19T08:35:23.663Z,7.40
2019-02-19T08:37:52.211Z,7.50
2019-02-19T08:40:20.764Z,7.50
2019-02-19T08:42:49.621Z,7.50
2019-02-19T08:45:18.164Z,7.50
2019-02-19T08:47:46.687Z,7.60
2019-02-19T08:50:15.164Z,7.60
2019-02-19T08:52:43.625Z,7.70
2019-02-19T08:55:12.215Z,7.80
2019-02-19T08:57:40.702Z,7.80
2019-02-19T09:00:11.461Z,7.80
2019-02-19T09:02:40.331Z,7.90
2019-02-19T09:05:08.855Z,8.00
2019-02-19T09:07:37.348Z,8.10
2019-02-19T09:10:08.948Z,8.30
2019-02-19T09:12:37.840Z,8.50
2019-02-19T09:15:11.016Z,8.70
2019-02-19T09:17:39.408Z,8.80
2019-02-19T09:20:09.125Z,8.80
2019-02-19T09:22:37.923Z,8.80
2019-02-19T09:25:08.323Z,8.80
2019-02-19T09:27:36.871Z,8.70
2019-02-19T09:30:11.063Z,8.70
2019-02-19T09:32:39.799Z,8.60
2019-02-19T09:35:09.432Z,8.60
2019-02-19T09:37:37.951Z,8.50
2019-02-19T09:40:09.190Z,8.50
2019-02-19T09:42:37.787Z,8.50
2019-02-19T09:45:10.415Z,8.60
2019-02-19T09:47:38.943Z,8.60
2019-02-19T09:50:09.814Z,8.80
2019-02-19T09:52:38.336Z,8.80
2019-02-19T09:55:07.964Z,8.80
2019-02-19T09:57:36.563Z,8.80
2019-02-19T10:00:11.345Z,8.80
2019-02-19T10:02:39.905Z,8.90
2019-02-19T10:05:10.475Z,9.00
2019-02-19T10:07:39.024Z,9.10
2019-02-19T10:10:10.634Z,9.20
2019-02-19T10:12:39.255Z,9.40
2019-02-19T10:15:11.020Z,9.50
2019-02-19T10:17:39.507Z,9.60
2019-02-19T10:20:10.000Z,9.50
2019-02-19T10:22:38.587Z,9.50
2019-02-19T10:25:12.162Z,9.50
2019-02-19T10:27:40.714Z,9.60
2019-02-19T10:30:17.811Z,9.60
2019-02-19T10:32:46.295Z,9.70
2019-02-19T10:35:14.751Z,9.70
2019-02-19T10:37:43.233Z,9.60
2019-02-19T10:40:14.471Z,9.50
2019-02-19T10:42:43.168Z,9.50
2019-02-19T10:45:14.855Z,9.50
2019-02-19T10:47:43.408Z,9.60
2019-02-19T10:50:12.003Z,9.50
2019-02-19T10:52:40.460Z,9.60
2019-02-19T10:55:10.280Z,9.70
2019-02-19T10:57:38.815Z,9.90
2019-02-19T11:00:19.220Z,10.00
2019-02-19T11:02:47.901Z,10.20
2019-02-19T11:05:16.616Z,10.20
2019-02-19T11:07:45.512Z,10.10
2019-02-19T11:10:14.635Z,9.90
2019-02-19T11:12:43.159Z,9.70
2019-02-19T11:15:17.332Z,9.60
2019-02-19T11:17:45.752Z,9.50
2019-02-19T11:20:19.031Z,9.50
2019-02-19T11:22:47.875Z,9.50
2019-02-19T11:25:16.476Z,9.40
2019-02-19T11:27:45.100Z,9.30
2019-02-19T11:30:20.275Z,9.30
2019-02-19T11:32:48.919Z,9.20
2019-02-19T11:35:17.434Z,9.20
2019-02-19T11:37:45.917Z,9.10
2019-02-19T11:40:14.812Z,9.00
2019-02-19T11:42:43.373Z,9.00
2019-02-19T11:45:14.327Z,8.90
2019-02-19T11:47:42.808Z,8.80
2019-02-19T11:50:13.179Z,8.80
2019-02-19T11:52:41.823Z,8.70
2019-02-19T11:55:15.351Z,8.70
2019-02-19T11:57:43.831Z,8.60
2019-02-19T12:00:16.815Z,8.60
2019-02-19T12:02:45.422Z,8.50
2019-02-19T12:05:14.045Z,8.50
2019-02-19T12:07:42.566Z,8.50
2019-02-19T12:10:11.995Z,8.50
2019-02-19T12:12:41.136Z,8.50
2019-02-19T12:15:12.003Z,8.50
2019-02-19T12:17:40.537Z,8.50
2019-02-19T12:20:11.480Z,8.50
2019-02-19T12:22:40.388Z,8.50
2019-02-19T12:25:09.688Z,8.50
2019-02-19T12:27:38.234Z,8.50
2019-02-19T12:30:15.244Z,8.60
2019-02-19T12:32:43.868Z,8.70
2019-02-19T12:35:12.469Z,8.70
2019-02-19T12:37:41.312Z,8.70
2019-02-19T12:40:11.979Z,8.70
2019-02-19T12:42:40.464Z,8.60
2019-02-19T12:45:11.056Z,8.60
2019-02-19T12:47:39.544Z,8.50
2019-02-19T12:50:10.783Z,8.50
2019-02-19T12:52:39.808Z,8.50
2019-02-19T12:55:09.604Z,8.40
2019-02-19T12:57:38.163Z,8.40
2019-02-19T13:00:12.222Z,8.40
2019-02-19T13:02:40.776Z,8.30
2019-02-19T13:05:10.843Z,8.40
2019-02-19T13:07:39.795Z,8.40
2019-02-19T13:10:12.244Z,8.40
2019-02-19T13:12:41.144Z,8.50
2019-02-19T13:15:14.636Z,8.50
2019-02-19T13:17:43.227Z,8.50
2019-02-19T13:20:13.756Z,8.60
2019-02-19T13:22:42.361Z,8.60
2019-02-19T13:25:11.870Z,8.60
2019-02-19T13:27:40.740Z,8.70
2019-02-19T13:30:22.494Z,8.70
2019-02-19T13:32:50.951Z,8.90
2019-02-19T13:35:19.583Z,8.90
2019-02-19T13:37:48.048Z,8.90
2019-02-19T13:40:18.110Z,9.00
2019-02-19T13:42:46.654Z,9.10
2019-02-19T13:45:15.855Z,9.10
2019-02-19T13:47:44.608Z,9.20
2019-02-19T13:50:16.136Z,9.30
2019-02-19T13:52:46.254Z,9.30
2019-02-19T13:55:16.423Z,9.40
2019-02-19T13:57:44.871Z,9.60
2019-02-19T14:00:15.168Z,9.70
2019-02-19T14:02:43.681Z,9.80
2019-02-19T14:05:12.227Z,9.90
2019-02-19T14:07:40.691Z,10.00
2019-02-19T14:10:10.881Z,10.20
2019-02-19T14:12:39.335Z,10.40
2019-02-19T14:15:17.870Z,10.50
2019-02-19T14:17:46.379Z,10.60
2019-02-19T14:20:16.832Z,10.70
2019-02-19T14:22:58.816Z,10.80
2019-02-19T14:25:28.913Z,11.20
2019-02-19T14:28:17.241Z,11.80
2019-02-19T14:30:53.429Z,11.90
2019-02-19T14:33:23.655Z,11.90
2019-02-19T14:35:59.754Z,11.90
2019-02-19T14:38:44.895Z,12.20
2019-02-19T14:41:20.901Z,12.50
2019-02-19T14:43:51.063Z,12.60
2019-02-19T14:46:24.132Z,12.30
2019-02-19T14:49:06.152Z,12.00
2019-02-19T14:51:45.221Z,11.60
2019-02-19T14:54:31.912Z,11.30
2019-02-19T14:57:10.983Z,11.50
2019-02-19T14:59:50.059Z,11.40
2019-02-19T15:02:20.247Z,11.40
2019-02-19T15:04:50.636Z,11.50
2019-02-19T15:07:32.995Z,11.50
2019-02-19T15:10:19.578Z,11.70
2019-02-19T15:12:49.792Z,11.70
2019-02-19T15:15:26.333Z,11.60
2019-02-19T15:18:13.311Z,11.60
2019-02-19T15:20:46.159Z,11.40
2019-02-19T15:23:28.427Z,11.20
2019-02-19T15:25:58.519Z,11.10
2019-02-19T15:28:40.861Z,10.90
2019-02-19T15:31:23.419Z,10.90
2019-02-19T15:34:05.713Z,10.90
2019-02-19T15:36:38.599Z,10.80
2019-02-19T15:39:24.027Z,10.60
2019-02-19T15:42:06.298Z,10.50
2019-02-19T15:44:39.170Z,10.40
2019-02-19T15:47:12.019Z,10.30
2019-02-19T15:49:47.784Z,10.20
2019-02-19T15:52:20.647Z,10.10
2019-02-19T15:54:53.697Z,10.10
2019-02-19T15:57:26.511Z,10.00
2019-02-19T16:00:13.003Z,10.00
2019-02-19T16:02:49.083Z,10.00
2019-02-19T16:05:34.248Z,9.90
2019-02-19T16:08:04.344Z,9.90
2019-02-19T16:10:37.023Z,9.80
2019-02-19T16:13:09.691Z,9.80
2019-02-19T16:15:52.050Z,9.70
2019-02-19T16:18:40.665Z,9.70
2019-02-19T16:21:16.508Z,9.70
2019-02-19T16:23:52.645Z,9.60
2019-02-19T16:26:28.805Z,9.60
2019-02-19T16:28:59.301Z,9.60
2019-02-19T16:31:32.692Z,9.50
2019-02-19T16:34:19.107Z,9.50
2019-02-19T16:37:04.264Z,9.40
2019-02-19T16:39:36.895Z,9.40
2019-02-19T16:42:07.059Z,9.30
2019-02-19T16:44:37.248Z,9.30
2019-02-19T16:47:19.592Z,9.20
2019-02-19T16:50:07.872Z,9.20
2019-02-19T16:52:42.692Z,9.10
2019-02-19T16:55:12.808Z,9.00
2019-02-19T16:57:42.891Z,9.00
2019-02-19T17:00:20.035Z,9.00
2019-02-19T17:02:50.416Z,8.90
2019-02-19T17:05:20.512Z,8.80
2019-02-19T17:07:56.495Z,8.80
2019-02-19T17:10:35.812Z,8.80
2019-02-19T17:13:08.651Z,8.80
2019-02-19T17:15:38.763Z,8.70
2019-02-19T17:18:24.872Z,8.60
2019-02-19T17:20:55.064Z,8.60
2019-02-19T17:23:25.232Z,8.50
2019-02-19T17:25:55.356Z,8.40
2019-02-19T17:28:25.974Z,8.30
2019-02-19T17:31:01.937Z,8.30
2019-02-19T17:33:35.072Z,8.10
2019-02-19T17:36:21.518Z,8.00
2019-02-19T17:38:51.610Z,7.90
2019-02-19T17:41:34.080Z,7.90
2019-02-19T17:44:07.173Z,7.80
2019-02-19T17:46:40.283Z,7.70
2019-02-19T17:49:19.628Z,7.60
2019-02-19T17:51:52.715Z,7.60
2019-02-19T17:54:31.977Z,7.50
2019-02-19T17:57:05.040Z,7.40
2019-02-19T17:59:37.967Z,7.40
2019-02-19T18:02:08.493Z,7.30
2019-02-19T18:04:38.607Z,7.30
2019-02-19T18:07:24.043Z,7.30
2019-02-19T18:10:05.752Z,7.20
2019-02-19T18:12:41.698Z,7.20
2019-02-19T18:15:23.987Z,7.10
2019-02-19T18:17:59.720Z,7.10
2019-02-19T18:20:28.200Z,7.00
2019-02-19T18:22:56.727Z,7.00
2019-02-19T18:25:25.498Z,7.00
2019-02-19T18:27:54.015Z,7.00
2019-02-19T18:30:22.471Z,6.90
2019-02-19T18:32:51.252Z,6.90
2019-02-19T18:35:19.700Z,6.90
2019-02-19T18:37:48.557Z,6.90
2019-02-19T18:40:17.163Z,6.90
2019-02-19T18:42:45.708Z,6.80
2019-02-19T18:45:14.383Z,6.80
2019-02-19T18:47:42.936Z,6.80
2019-02-19T18:50:11.523Z,6.80
2019-02-19T18:52:39.981Z,6.70
2019-02-19T18:55:08.770Z,6.60
2019-02-19T18:57:37.291Z,6.60
2019-02-19T19:00:08.789Z,6.70
2019-02-19T19:02:37.239Z,6.60
2019-02-19T19:05:07.364Z,6.60
2019-02-19T19:07:35.819Z,6.60
2019-02-19T19:10:06.507Z,6.60
2019-02-19T19:12:35.035Z,6.60
2019-02-19T19:15:03.955Z,6.60
2019-02-19T19:17:32.513Z,6.60
2019-02-19T19:20:01.047Z,6.60
2019-02-19T19:22:29.528Z,6.50
2019-02-19T19:24:57.990Z,6.50
2019-02-19T19:27:26.535Z,6.50
2019-02-19T19:29:55.231Z,6.50
2019-02-19T19:32:24.020Z,6.40
2019-02-19T19:34:52.476Z,6.40
2019-02-19T19:37:21.035Z,6.40
2019-02-19T19:39:49.874Z,6.40
2019-02-19T19:42:18.436Z,6.40
2019-02-19T19:44:46.968Z,6.40
2019-02-19T19:47:15.528Z,6.30
2019-02-19T19:49:44.431Z,6.30
2019-02-19T19:52:12.900Z,6.20
2019-02-19T19:54:41.455Z,6.20
2019-02-19T19:57:09.913Z,6.20
2019-02-19T19:59:38.468Z,6.10
2019-02-19T20:02:06.999Z,6.10
2019-02-19T20:04:35.483Z,6.10
2019-02-19T20:07:04.392Z,6.00
2019-02-19T20:09:32.880Z,6.00
2019-02-19T20:12:01.430Z,6.00
2019-02-19T20:14:29.967Z,6.00
2019-02-19T20:16:58.427Z,5.90
2019-02-19T20:19:26.920Z,5.90
2019-02-19T20:21:55.439Z,5.90
2019-02-19T20:24:23.899Z,5.80
2019-02-19T20:26:52.451Z,5.80
2019-02-19T20:29:21.236Z,5.80
2019-02-19T20:31:50.024Z,5.80
2019-02-19T20:34:18.483Z,5.80
2019-02-19T20:36:46.964Z,5.70
2019-02-19T20:39:15.496Z,5.70
2019-02-19T20:41:44.053Z,5.70
2019-02-19T20:44:12.575Z,5.70
2019-02-19T20:46:41.136Z,5.70
2019-02-19T20:49:09.731Z,5.70
2019-02-19T20:51:38.292Z,5.60
2019-02-19T20:54:06.752Z,5.60
2019-02-19T20:56:35.563Z,5.60
2019-02-19T20:59:04.217Z,5.60
2019-02-19T21:01:32.752Z,5.50
2019-02-19T21:04:01.236Z,5.50
2019-02-19T21:06:29.772Z,5.50
2019-02-19T21:08:58.259Z,5.40
2019-02-19T21:11:27.673Z,5.40
2019-02-19T21:13:56.313Z,5.40
2019-02-19T21:16:25.144Z,5.30
2019-02-19T21:18:53.732Z,5.30
2019-02-19T21:21:22.264Z,5.30
2019-02-19T21:23:50.741Z,5.20
2019-02-19T21:26:19.297Z,5.30
2019-02-19T21:28:47.823Z,5.20
2019-02-19T21:31:16.274Z,5.20
2019-02-19T21:33:44.735Z,5.20
2019-02-19T21:36:13.291Z,5.10
2019-02-19T21:38:41.823Z,5.10
2019-02-19T21:41:10.308Z,5.00
2019-02-19T21:43:38.835Z,5.10
2019-02-19T21:46:07.350Z,5.00
2019-02-19T21:48:35.923Z,5.00
2019-02-19T21:51:04.916Z,5.10
2019-02-19T21:53:33.514Z,5.00
2019-02-19T21:56:02.003Z,5.00
2019-02-19T21:58:30.631Z,5.00
2019-02-19T22:00:59.084Z,5.00
2019-02-19T22:03:27.584Z,5.00
2019-02-19T22:05:56.125Z,5.00
2019-02-19T22:08:24.667Z,5.00
2019-02-19T22:10:53.940Z,5.00
2019-02-19T22:13:22.578Z,5.00
2019-02-19T22:15:51.359Z,5.00
2019-02-19T22:18:19.819Z,4.90
2019-02-19T22:21:02.309Z,4.90
2019-02-19T22:23:30.848Z,4.90
2019-02-19T22:25:59.375Z,4.90
2019-02-19T22:28:27.934Z,4.90
2019-02-19T22:30:56.400Z,4.80
2019-02-19T22:33:24.875Z,4.80
2019-02-19T22:35:53.648Z,4.80
2019-02-19T22:38:22.445Z,4.80
2019-02-19T22:40:55.210Z,4.70
2019-02-19T22:43:21.183Z,4.80
2019-02-19T22:45:49.716Z,4.80
2019-02-19T22:48:18.195Z,4.70
2019-02-19T22:50:47.000Z,4.70
2019-02-19T22:53:29.116Z,4.60
2019-02-19T22:55:57.927Z,4.60
2019-02-19T22:58:26.455Z,4.60
2019-02-19T23:00:57.392Z,4.60
2019-02-19T23:03:27.179Z,4.50
2019-02-19T23:05:56.046Z,4.50
2019-02-19T23:08:24.807Z,4.50
2019-02-19T23:10:53.294Z,4.50
2019-02-19T23:13:21.820Z,4.50
2019-02-19T23:15:50.375Z,4.50
2019-02-19T23:18:18.834Z,4.40
2019-02-19T23:20:47.368Z,4.40
2019-02-19T23:23:15.848Z,4.40
2019-02-19T23:25:44.377Z,4.40
2019-02-19T23:28:12.936Z,4.40
2019-02-19T23:30:41.396Z,4.40
2019-02-19T23:33:10.223Z,4.40
2019-02-19T23:35:43.629Z,4.40
2019-02-19T23:38:12.180Z,4.40
2019-02-19T23:40:40.711Z,4.40
2019-02-19T23:43:09.193Z,4.40
2019-02-19T23:45:37.727Z,4.40
2019-02-19T23:48:06.568Z,4.40
2019-02-19T23:50:35.132Z,4.40
2019-02-19T23:53:03.666Z,4.40
2019-02-19T23:55:32.218Z,4.40
2019-02-19T23:58:00.677Z,4.40
